Wattisham, United Kingdom
Current Conditions -  °F | °C
As of 7:50 AM on Friday 19 Dec 2014 (Local Time) from EGUW Reporting Station
Broken Clouds Broken Clouds  
Wind Chill: 40°   Ceiling: 15000
Heat Index: 46°   Visibility: 6mi
Dew Point: 43°   Wind: 15mph
Humidity: 87%   Direction: 300°WNW
Pressure: 29.8"   Gusts: NA
Location:  52.13°N, 0.94°E
Report Text: EGUW 190750Z 30013KT 9999 FEW015 SCT036 BKN150 08/06 Q1009 BLU NOSIG
Loading
Personal Weather Stations






























Interactive Weather Map New forecast layout! Learn more

10-Day Weather Forecast

Advertisements
Track Severe Weather on mobile